createdAt,value
2022-12-31T00:01:16.726Z,101741.13
2022-12-31T00:03:45.439Z,101741.94
2022-12-31T00:06:17.987Z,101746.28
2022-12-31T00:08:46.012Z,101741.94
2022-12-31T00:11:14.439Z,101745.34
2022-12-31T00:13:41.860Z,101728.16
2022-12-31T00:16:12.658Z,101731.50
2022-12-31T00:18:43.815Z,101733.19
2022-12-31T00:21:12.297Z,101731.44
2022-12-31T00:23:39.939Z,101729.66
2022-12-31T00:26:10.380Z,101731.31
2022-12-31T00:28:39.023Z,101743.34
2022-12-31T00:31:18.416Z,101736.50
2022-12-31T00:33:46.158Z,101728.75
2022-12-31T00:36:16.234Z,101722.69
2022-12-31T00:38:46.947Z,101739.94
2022-12-31T00:41:15.258Z,101740.81
2022-12-31T00:43:43.161Z,101726.19
2022-12-31T00:46:12.009Z,101738.28
2022-12-31T00:48:40.037Z,101727.97
2022-12-31T00:51:10.895Z,101737.44
2022-12-31T00:53:38.738Z,101736.53
2022-12-31T00:56:14.041Z,101738.31
2022-12-31T00:58:42.195Z,101734.88
2022-12-31T01:01:14.656Z,101740.13
2022-12-31T01:03:42.520Z,101742.78
2022-12-31T01:06:10.115Z,101743.66
2022-12-31T01:08:37.749Z,101735.00
2022-12-31T01:11:24.344Z,101741.94
2022-12-31T01:14:06.486Z,101743.75
2022-12-31T01:16:43.014Z,101760.97
2022-12-31T01:19:15.672Z,101761.06
2022-12-31T01:21:44.961Z,101770.59
2022-12-31T01:24:13.274Z,101775.03
2022-12-31T01:26:41.140Z,101773.38
2022-12-31T01:29:12.463Z,101785.53
2022-12-31T01:31:40.406Z,101785.53
2022-12-31T01:34:07.914Z,101782.94
2022-12-31T01:36:35.619Z,101783.84
2022-12-31T01:39:04.231Z,101778.75
2022-12-31T01:41:49.502Z,101783.97
2022-12-31T01:44:25.947Z,101794.28
2022-12-31T01:47:01.002Z,101784.03
2022-12-31T01:49:37.230Z,101796.97
2022-12-31T01:52:15.466Z,101796.16
2022-12-31T01:54:44.881Z,101806.47
2022-12-31T01:57:13.835Z,101798.66
2022-12-31T01:59:41.190Z,101807.28
2022-12-31T02:02:08.426Z,101820.13
2022-12-31T02:04:35.727Z,101821.91
2022-12-31T02:07:05.222Z,101821.91
2022-12-31T02:09:33.044Z,101832.19
2022-12-31T02:12:00.447Z,101822.72
2022-12-31T02:14:57.766Z,101825.25
2022-12-31T02:17:43.681Z,101829.59
2022-12-31T02:20:26.086Z,101830.34
2022-12-31T02:23:12.195Z,101838.19
2022-12-31T02:25:47.488Z,101837.41
2022-12-31T02:28:20.777Z,101839.13
2022-12-31T02:30:54.387Z,101845.22
2022-12-31T02:33:30.718Z,101843.47
2022-12-31T02:36:18.480Z,101846.03
2022-12-31T02:38:47.451Z,101857.28
2022-12-31T02:41:35.352Z,101851.28
2022-12-31T02:44:20.344Z,101846.13
2022-12-31T02:47:06.700Z,101846.97
2022-12-31T02:49:40.806Z,101842.63
2022-12-31T02:52:16.547Z,101853.84
2022-12-31T02:55:08.623Z,101860.69
2022-12-31T02:57:51.138Z,101863.22
2022-12-31T03:00:37.446Z,101863.22
2022-12-31T03:03:10.188Z,101866.63
2022-12-31T03:05:42.080Z,101867.50
2022-12-31T03:08:09.649Z,101870.06
2022-12-31T03:10:37.755Z,101863.16
2022-12-31T03:13:08.874Z,101861.44
2022-12-31T03:15:36.097Z,101863.13
2022-12-31T03:18:10.748Z,101863.13
2022-12-31T03:20:59.347Z,101866.59
2022-12-31T03:23:31.042Z,101862.25
2022-12-31T03:26:00.422Z,101866.53
2022-12-31T03:28:34.739Z,101857.94
2022-12-31T03:31:02.766Z,101855.38
2022-12-31T03:33:32.196Z,101851.03
2022-12-31T03:36:00.255Z,101853.63
2022-12-31T03:38:27.408Z,101849.31
2022-12-31T03:40:55.900Z,101842.41
2022-12-31T03:43:23.149Z,101838.03
2022-12-31T03:45:52.122Z,101852.69
2022-12-31T03:48:20.087Z,101857.00
2022-12-31T03:50:47.237Z,101852.69
2022-12-31T03:53:22.527Z,101846.66
2022-12-31T03:56:03.308Z,101844.06
2022-12-31T03:58:30.514Z,101840.63
2022-12-31T04:00:59.440Z,101845.78
2022-12-31T04:03:29.498Z,101853.50
2022-12-31T04:06:00.434Z,101846.59
2022-12-31T04:08:30.228Z,101850.03
2022-12-31T04:11:07.618Z,101856.06
2022-12-31T04:13:37.137Z,101863.81
2022-12-31T04:16:04.412Z,101868.09
2022-12-31T04:18:31.959Z,101873.25
2022-12-31T04:21:08.895Z,101871.53
2022-12-31T04:23:38.670Z,101868.94
2022-12-31T04:26:05.855Z,101866.31
2022-12-31T04:28:35.791Z,101862.88
2022-12-31T04:31:06.297Z,101869.75
2022-12-31T04:33:33.532Z,101871.47
2022-12-31T04:36:04.186Z,101868.03
2022-12-31T04:38:32.322Z,101868.88
2022-12-31T04:41:20.217Z,101874.91
2022-12-31T04:44:03.931Z,101891.28
2022-12-31T04:46:32.482Z,101888.72
2022-12-31T04:49:02.580Z,101896.41
2022-12-31T04:51:31.874Z,101900.75
2022-12-31T04:54:01.960Z,101915.41
2022-12-31T04:56:29.585Z,101911.97
2022-12-31T04:58:59.472Z,101924.03
2022-12-31T05:01:29.384Z,101928.31
2022-12-31T05:03:59.277Z,101931.81
2022-12-31T05:06:27.666Z,101940.38
2022-12-31T05:08:57.350Z,101945.53
2022-12-31T05:11:24.641Z,101945.53
2022-12-31T05:13:52.987Z,101942.09
2022-12-31T05:16:20.306Z,101958.44
2022-12-31T05:18:47.580Z,101956.72
2022-12-31T05:21:18.264Z,101962.75
2022-12-31T05:23:50.685Z,101954.97
2022-12-31T05:26:19.673Z,101959.25
2022-12-31T05:28:47.506Z,101960.97
2022-12-31T05:31:14.667Z,101957.56
2022-12-31T05:33:41.860Z,101964.44
2022-12-31T05:36:10.263Z,101955.81
2022-12-31T05:38:37.943Z,101976.47
2022-12-31T05:41:07.799Z,101969.56
2022-12-31T05:43:36.050Z,101981.66
2022-12-31T05:46:16.970Z,101989.41
2022-12-31T05:48:46.853Z,101985.09
2022-12-31T05:51:19.783Z,101985.09
2022-12-31T05:54:12.022Z,101991.13
2022-12-31T05:56:39.477Z,101998.03
2022-12-31T05:59:08.739Z,101994.56
2022-12-31T06:01:36.645Z,101998.03
2022-12-31T06:04:04.167Z,101998.00
2022-12-31T06:10:16.515Z,102002.31
2022-12-31T06:12:46.131Z,102003.19
2022-12-31T06:15:15.045Z,101996.25
2022-12-31T06:17:50.692Z,102010.91
2022-12-31T06:20:19.271Z,102005.75
2022-12-31T06:22:46.582Z,102010.94
2022-12-31T06:25:21.520Z,102016.13
2022-12-31T06:27:58.429Z,102020.44
2022-12-31T06:30:26.559Z,102029.88
2022-12-31T06:32:57.432Z,102031.59
2022-12-31T06:35:24.558Z,102027.31
2022-12-31T06:37:53.702Z,102033.34
2022-12-31T06:40:22.657Z,102033.38
2022-12-31T06:43:00.191Z,102028.19
2022-12-31T06:45:35.738Z,102036.81
2022-12-31T06:48:05.847Z,102036.81
2022-12-31T06:50:35.747Z,102048.91
2022-12-31T06:53:07.364Z,102050.63
2022-12-31T06:55:34.790Z,102048.84
2022-12-31T06:58:02.841Z,102059.19
2022-12-31T07:00:39.410Z,102062.66
2022-12-31T07:03:16.129Z,102066.97
2022-12-31T07:05:48.816Z,102069.53
2022-12-31T07:08:31.472Z,102079.06
2022-12-31T07:11:11.037Z,102077.34
2022-12-31T07:13:53.773Z,102077.34
2022-12-31T07:16:39.899Z,102083.38
2022-12-31T07:19:07.279Z,102074.72
2022-12-31T07:21:35.835Z,102095.41
2022-12-31T07:24:06.063Z,102094.53
2022-12-31T07:26:55.988Z,102106.59
2022-12-31T07:29:29.632Z,102105.75
2022-12-31T07:32:09.920Z,102109.16
2022-12-31T07:34:59.093Z,102115.94
2022-12-31T07:37:49.373Z,102115.16
2022-12-31T07:40:19.746Z,102114.31
2022-12-31T07:43:05.750Z,102117.75
2022-12-31T07:45:35.652Z,102128.97
2022-12-31T07:48:03.308Z,102121.22
2022-12-31T07:50:30.663Z,102126.41
2022-12-31T07:52:58.085Z,102116.91
2022-12-31T07:55:25.689Z,102128.09
2022-12-31T07:57:59.150Z,102132.41
2022-12-31T08:00:26.847Z,102129.81
2022-12-31T08:03:01.535Z,102135.84
2022-12-31T08:05:33.768Z,102147.03
2022-12-31T08:08:00.901Z,102148.78
2022-12-31T08:10:37.769Z,102156.50
2022-12-31T08:13:08.707Z,102162.53
2022-12-31T08:15:37.701Z,102158.22
2022-12-31T08:18:06.095Z,102150.44
2022-12-31T08:20:34.238Z,102154.78
2022-12-31T08:23:01.391Z,102153.00
2022-12-31T08:25:52.869Z,102166.66
2022-12-31T08:28:27.468Z,102170.94
2022-12-31T08:31:06.855Z,102169.22
2022-12-31T08:33:36.883Z,102177.91
2022-12-31T08:36:22.842Z,102173.63
2022-12-31T08:38:49.927Z,102177.06
2022-12-31T08:41:19.864Z,102177.94
2022-12-31T08:43:50.392Z,102179.72
2022-12-31T08:46:44.954Z,102179.72
2022-12-31T08:49:12.708Z,102181.41
2022-12-31T08:51:40.002Z,102184.81
2022-12-31T08:54:09.993Z,102184.00
2022-12-31T08:56:40.330Z,102188.31
2022-12-31T08:59:25.925Z,102188.28
2022-12-31T09:01:56.258Z,102199.50
2022-12-31T09:04:42.447Z,102202.03
2022-12-31T09:07:11.999Z,102199.44
2022-12-31T09:09:57.596Z,102201.16
2022-12-31T09:12:36.172Z,102205.34
2022-12-31T09:15:18.445Z,102197.63
2022-12-31T09:17:47.494Z,102198.47
2022-12-31T09:20:17.903Z,102200.19
2022-12-31T09:22:45.128Z,102201.06
2022-12-31T09:25:13.791Z,102208.81
2022-12-31T09:27:46.926Z,102203.63
2022-12-31T09:30:15.691Z,102213.88
2022-12-31T09:33:01.284Z,102208.75
2022-12-31T09:35:36.785Z,102219.09
2022-12-31T09:38:30.349Z,102215.66
2022-12-31T09:41:03.489Z,102206.03
2022-12-31T09:43:51.616Z,102205.25
2022-12-31T09:46:38.964Z,102202.72
2022-12-31T09:49:27.801Z,102212.22
2022-12-31T09:52:34.151Z,102212.94
2022-12-31T09:55:04.412Z,102220.78
2022-12-31T09:57:39.984Z,102224.25
2022-12-31T10:00:22.492Z,102224.13
2022-12-31T10:02:49.761Z,102221.56
2022-12-31T10:05:35.594Z,102217.22
2022-12-31T10:08:25.640Z,102217.22
2022-12-31T10:10:58.700Z,102224.03
2022-12-31T10:13:35.192Z,102226.56
2022-12-31T10:16:22.624Z,102221.38
2022-12-31T10:18:49.780Z,102218.78
2022-12-31T10:21:17.358Z,102227.34
2022-12-31T10:24:03.353Z,102226.38
2022-12-31T10:26:53.228Z,102229.75
2022-12-31T10:29:23.868Z,102215.25
2022-12-31T10:31:54.112Z,102207.50
2022-12-31T10:34:25.091Z,102220.47
2022-12-31T10:36:54.200Z,102209.25
2022-12-31T10:39:27.555Z,102210.72
2022-12-31T10:41:54.645Z,102196.09
2022-12-31T10:44:22.124Z,102191.91
2022-12-31T10:47:07.061Z,102186.75
2022-12-31T10:49:52.826Z,102184.94
2022-12-31T10:52:41.912Z,102182.34
2022-12-31T10:55:24.306Z,102187.53
2022-12-31T10:58:04.244Z,102180.56
2022-12-31T11:00:44.098Z,102182.28
2022-12-31T11:03:31.094Z,102183.09
2022-12-31T11:05:58.629Z,102183.91
2022-12-31T11:09:01.037Z,102191.59
2022-12-31T11:11:38.606Z,102187.19
2022-12-31T11:14:24.647Z,102186.19
2022-12-31T11:16:58.774Z,102202.63
2022-12-31T11:19:38.989Z,102192.25
2022-12-31T11:22:06.055Z,102189.66
2022-12-31T11:24:51.881Z,102194.78
2022-12-31T11:27:22.078Z,102188.75
2022-12-31T11:30:01.372Z,102192.06
2022-12-31T11:32:31.624Z,102188.66
2022-12-31T11:35:14.984Z,102195.56
2022-12-31T11:37:45.348Z,102194.72
2022-12-31T11:40:31.178Z,102198.13
2022-12-31T11:43:10.164Z,102192.03
2022-12-31T11:45:37.246Z,102179.88
2022-12-31T11:48:32.691Z,102179.88
2022-12-31T11:51:00.164Z,102174.66
2022-12-31T11:53:50.305Z,102179.88
2022-12-31T11:56:18.933Z,102184.06
2022-12-31T11:58:52.905Z,102176.31
2022-12-31T12:01:24.472Z,102167.59
2022-12-31T12:03:51.809Z,102172.69
2022-12-31T12:06:23.612Z,102169.22
2022-12-31T12:08:50.985Z,102151.94
2022-12-31T12:11:21.348Z,102148.47
2022-12-31T12:13:48.540Z,102141.53
2022-12-31T12:16:15.973Z,102139.78
2022-12-31T12:18:47.365Z,102130.19
2022-12-31T12:21:16.981Z,102125.84
2022-12-31T12:24:02.768Z,102131.03
2022-12-31T12:26:35.093Z,102146.09
2022-12-31T12:29:09.548Z,102152.25
2022-12-31T12:31:38.218Z,102141.25
2022-12-31T12:34:06.057Z,102133.44
2022-12-31T12:36:34.002Z,102127.44
2022-12-31T12:39:05.560Z,102128.19
2022-12-31T12:41:33.256Z,102129.06
2022-12-31T12:44:08.610Z,102125.53
2022-12-31T12:46:41.444Z,102131.75
2022-12-31T12:49:20.882Z,102141.19
2022-12-31T12:52:01.614Z,102145.47
2022-12-31T12:54:29.013Z,102141.19
2022-12-31T12:57:14.542Z,102134.22
2022-12-31T13:00:00.568Z,102136.00
2022-12-31T13:02:48.826Z,102137.78
2022-12-31T13:05:31.295Z,102132.66
2022-12-31T13:08:17.050Z,102139.53
2022-12-31T13:10:51.913Z,102137.78
2022-12-31T13:13:28.024Z,102145.50
2022-12-31T13:15:55.229Z,102140.28
2022-12-31T13:18:37.866Z,102137.59
2022-12-31T13:21:05.117Z,102137.50
2022-12-31T13:23:51.671Z,102132.19
2022-12-31T13:26:34.421Z,102134.81
2022-12-31T13:29:27.344Z,102130.53
2022-12-31T13:31:56.652Z,102130.59
2022-12-31T13:34:39.594Z,102140.09
2022-12-31T13:37:18.435Z,102137.50
2022-12-31T13:39:47.075Z,102136.53
2022-12-31T13:42:28.598Z,102139.22
2022-12-31T13:44:59.287Z,102140.97
2022-12-31T13:47:26.449Z,102144.47
2022-12-31T13:49:57.821Z,102135.72
2022-12-31T13:52:24.968Z,102137.34
2022-12-31T13:55:03.604Z,102141.75
2022-12-31T13:57:40.450Z,102145.97
2022-12-31T14:00:26.599Z,102141.69
2022-12-31T14:03:14.339Z,102151.28
2022-12-31T14:05:41.644Z,102147.03
2022-12-31T14:08:09.820Z,102153.13
2022-12-31T14:11:00.578Z,102150.50
2022-12-31T14:13:36.951Z,102154.81
2022-12-31T14:16:11.196Z,102158.34
2022-12-31T14:18:57.411Z,102162.69
2022-12-31T14:21:29.025Z,102158.41
2022-12-31T14:24:20.342Z,102167.16
2022-12-31T14:26:52.797Z,102175.81
2022-12-31T14:29:34.974Z,102184.53
2022-12-31T14:32:19.320Z,102180.22
2022-12-31T14:34:47.526Z,102194.06
2022-12-31T14:37:19.892Z,102201.03
2022-12-31T14:40:25.693Z,102198.41
2022-12-31T14:43:00.134Z,102200.16
2022-12-31T14:45:27.278Z,102194.13
2022-12-31T14:48:06.636Z,102202.78
2022-12-31T14:50:34.904Z,102204.53
2022-12-31T14:53:08.267Z,102216.66
2022-12-31T14:55:36.881Z,102215.81
2022-12-31T14:58:28.366Z,102215.00
2022-12-31T15:00:58.084Z,102214.13
2022-12-31T15:03:31.460Z,102208.94
2022-12-31T15:06:17.408Z,102213.25
2022-12-31T15:09:08.260Z,102202.06
2022-12-31T15:11:42.015Z,102202.09
2022-12-31T15:14:30.936Z,102204.69
2022-12-31T15:17:21.307Z,102211.69
2022-12-31T15:20:00.739Z,102209.94
2022-12-31T15:22:40.983Z,102210.81
2022-12-31T15:25:22.011Z,102219.53
2022-12-31T15:27:49.335Z,102216.94
2022-12-31T15:30:46.013Z,102219.53
2022-12-31T15:33:31.565Z,102221.31
2022-12-31T15:36:10.645Z,102215.28
2022-12-31T15:38:38.909Z,102216.19
2022-12-31T15:41:24.288Z,102216.25
2022-12-31T15:43:58.177Z,102227.50
2022-12-31T15:46:27.931Z,102228.41
2022-12-31T15:49:06.754Z,102222.41
2022-12-31T15:51:44.167Z,102233.63
2022-12-31T15:54:19.311Z,102242.28
2022-12-31T15:56:49.853Z,102241.44
2022-12-31T15:59:18.271Z,102243.16
2022-12-31T16:01:46.007Z,102250.91
2022-12-31T16:04:18.560Z,102250.91
2022-12-31T16:06:50.648Z,102252.63
2022-12-31T16:09:30.611Z,102252.63
2022-12-31T16:11:59.494Z,102254.41
2022-12-31T16:14:36.519Z,102271.66
2022-12-31T16:17:05.626Z,102268.25
2022-12-31T16:19:46.215Z,102267.41
2022-12-31T16:22:14.981Z,102269.97
2022-12-31T16:25:19.507Z,102268.25
2022-12-31T16:27:30.609Z,102271.66
2022-12-31T16:30:07.106Z,102275.19
2022-12-31T16:32:37.141Z,102272.59
2022-12-31T16:35:23.642Z,102278.69
2022-12-31T16:38:04.042Z,102277.00
2022-12-31T16:40:31.652Z,102275.25
2022-12-31T16:42:58.996Z,102272.69
2022-12-31T16:45:34.853Z,102281.34
2022-12-31T16:48:16.386Z,102275.28
2022-12-31T16:50:50.675Z,102283.91
2022-12-31T16:53:21.167Z,102284.81
2022-12-31T16:56:02.273Z,102283.97
2022-12-31T16:58:33.022Z,102281.44
2022-12-31T17:01:13.714Z,102284.88
2022-12-31T17:03:45.008Z,102286.63
2022-12-31T17:06:15.655Z,102294.44
2022-12-31T17:08:44.826Z,102303.78
2022-12-31T17:11:24.037Z,102299.53
2022-12-31T17:14:11.871Z,102309.97
2022-12-31T17:17:02.261Z,102311.72
2022-12-31T17:19:40.349Z,102316.94
2022-12-31T17:22:09.937Z,102318.69
2022-12-31T17:24:38.736Z,102321.25
2022-12-31T17:27:07.979Z,102316.91
2022-12-31T17:29:35.584Z,102308.28
2022-12-31T17:32:24.283Z,102311.72
2022-12-31T17:34:51.911Z,102314.31
2022-12-31T17:37:25.118Z,102311.72
2022-12-31T17:39:54.549Z,102313.44
2022-12-31T17:42:37.582Z,102313.47
2022-12-31T17:45:22.145Z,102314.31
2022-12-31T17:47:52.488Z,102315.19
2022-12-31T17:50:19.771Z,102328.13
2022-12-31T17:52:47.667Z,102325.56
2022-12-31T17:55:15.089Z,102320.38
2022-12-31T17:57:52.298Z,102328.16
2022-12-31T18:00:27.123Z,102329.03
2022-12-31T18:02:54.933Z,102322.97
2022-12-31T18:05:23.855Z,102329.03
2022-12-31T18:07:52.217Z,102327.31
2022-12-31T18:10:22.839Z,102327.34
2022-12-31T18:12:50.939Z,102323.88
2022-12-31T18:15:21.457Z,102326.50
2022-12-31T18:17:49.337Z,102328.19
2022-12-31T18:20:17.795Z,102333.41
2022-12-31T18:22:45.884Z,102334.25
2022-12-31T18:25:22.845Z,102334.25
2022-12-31T18:27:52.536Z,102329.97
2022-12-31T18:30:19.859Z,102323.88
2022-12-31T18:32:47.380Z,102322.22
2022-12-31T18:35:57.738Z,102327.38
2022-12-31T18:38:16.323Z,102331.69
2022-12-31T18:40:50.329Z,102327.41
2022-12-31T18:43:19.383Z,102323.91
2022-12-31T18:45:47.983Z,102323.91
2022-12-31T18:48:16.290Z,102323.91
2022-12-31T18:50:44.289Z,102329.09
2022-12-31T18:53:17.547Z,102328.22
2022-12-31T18:55:48.745Z,102330.81
2022-12-31T18:58:16.592Z,102330.81
2022-12-31T19:00:44.495Z,102337.72
2022-12-31T19:03:23.346Z,102335.13
2022-12-31T19:05:51.896Z,102332.53
2022-12-31T19:08:23.564Z,102346.38
2022-12-31T19:10:52.607Z,102340.31
2022-12-31T19:13:20.488Z,102337.75
2022-12-31T19:15:51.370Z,102342.94
2022-12-31T19:18:19.373Z,102335.16
2022-12-31T19:20:47.174Z,102335.19
2022-12-31T19:23:20.446Z,102351.59
2022-12-31T19:25:49.308Z,102338.63
2022-12-31T19:28:20.293Z,102350.75
2022-12-31T19:30:48.676Z,102342.06
2022-12-31T19:33:17.014Z,102355.03
2022-12-31T19:35:45.728Z,102351.59
2022-12-31T19:38:22.880Z,102353.31
2022-12-31T19:40:51.396Z,102347.25
2022-12-31T19:43:21.271Z,102353.31
2022-12-31T19:45:50.107Z,102367.16
2022-12-31T19:48:30.304Z,102367.13
2022-12-31T19:51:00.293Z,102374.91
2022-12-31T19:53:28.010Z,102374.91
2022-12-31T19:55:55.484Z,102372.31
2022-12-31T19:58:28.143Z,102380.94
2022-12-31T20:01:02.854Z,102391.31
2022-12-31T20:03:32.752Z,102389.59
2022-12-31T20:06:05.666Z,102390.41
2022-12-31T20:08:34.403Z,102399.88
2022-12-31T20:11:15.409Z,102394.69
2022-12-31T20:13:43.442Z,102399.00
2022-12-31T20:16:13.919Z,102396.44
2022-12-31T20:18:43.146Z,102381.75
2022-12-31T20:21:20.415Z,102391.25
2022-12-31T20:23:49.448Z,102397.28
2022-12-31T20:26:17.716Z,102392.94
2022-12-31T20:28:45.828Z,102401.59
2022-12-31T20:31:19.002Z,102399.84
2022-12-31T20:33:46.484Z,102392.97
2022-12-31T20:36:16.091Z,102394.69
2022-12-31T20:38:44.376Z,102394.69
2022-12-31T20:41:17.674Z,102394.69
2022-12-31T20:43:45.693Z,102397.28
2022-12-31T20:46:21.777Z,102396.50
2022-12-31T20:48:51.331Z,102404.22
2022-12-31T20:51:20.116Z,102391.25
2022-12-31T20:53:55.126Z,102403.34
2022-12-31T20:56:26.053Z,102398.19
2022-12-31T20:58:53.492Z,102397.34
2022-12-31T21:01:21.910Z,102398.22
2022-12-31T21:04:06.654Z,102394.72
2022-12-31T21:06:35.702Z,102395.59
2022-12-31T21:09:05.359Z,102390.44
2022-12-31T21:11:51.860Z,102390.41
2022-12-31T21:14:19.803Z,102395.59
2022-12-31T21:16:47.367Z,102401.66
2022-12-31T21:19:14.872Z,102393.00
2022-12-31T21:21:42.472Z,102400.78
2022-12-31T21:24:10.204Z,102399.06
2022-12-31T21:26:37.630Z,102400.81
2022-12-31T21:29:05.068Z,102394.72
2022-12-31T21:31:32.691Z,102391.28
2022-12-31T21:34:00.197Z,102383.53
2022-12-31T21:36:29.633Z,102386.06
2022-12-31T21:38:57.124Z,102382.59
2022-12-31T21:41:43.105Z,102373.97
2022-12-31T21:44:13.694Z,102379.16
2022-12-31T21:47:00.884Z,102386.97
2022-12-31T21:49:28.507Z,102379.25
2022-12-31T21:52:14.291Z,102379.22
2022-12-31T21:55:20.233Z,102382.66
2022-12-31T22:00:58.756Z,102387.84
2022-12-31T22:03:29.253Z,102394.78
2022-12-31T22:06:12.434Z,102393.91
2022-12-31T22:08:41.946Z,102393.03
2022-12-31T22:11:10.781Z,102382.69
2022-12-31T22:13:39.054Z,102388.72
2022-12-31T22:16:07.532Z,102388.69
2022-12-31T22:18:38.909Z,102387.75
2022-12-31T22:21:18.780Z,102391.19
2022-12-31T22:23:50.134Z,102392.94
2022-12-31T22:26:19.750Z,102390.41
2022-12-31T22:28:47.560Z,102392.13
2022-12-31T22:31:21.152Z,102388.69
2022-12-31T22:33:48.719Z,102395.56
2022-12-31T22:36:19.149Z,102379.16
2022-12-31T22:38:47.489Z,102378.31
2022-12-31T22:41:20.670Z,102384.38
2022-12-31T22:43:50.777Z,102385.22
2022-12-31T22:46:21.407Z,102379.16
2022-12-31T22:48:49.708Z,102387.81
2022-12-31T22:51:17.896Z,102376.59
2022-12-31T22:53:45.714Z,102373.13
2022-12-31T22:56:16.265Z,102375.66
2022-12-31T22:58:44.464Z,102371.41
2022-12-31T23:01:19.453Z,102366.22
2022-12-31T23:03:48.301Z,102363.66
2022-12-31T23:06:16.424Z,102365.38
2022-12-31T23:09:03.830Z,102361.03
2022-12-31T23:11:31.951Z,102368.88
2022-12-31T23:14:18.239Z,102355.00
2022-12-31T23:17:57.144Z,102355.88
2022-12-31T23:20:44.021Z,102363.69
2022-12-31T23:23:15.343Z,102362.84
2022-12-31T23:25:46.792Z,102363.66
2022-12-31T23:28:17.882Z,102359.31
2022-12-31T23:30:45.392Z,102351.56
2022-12-31T23:33:18.975Z,102355.81
2022-12-31T23:35:46.573Z,102342.06
2022-12-31T23:38:16.633Z,102353.25
2022-12-31T23:40:44.549Z,102340.25
2022-12-31T23:43:22.381Z,102339.38
2022-12-31T23:45:51.690Z,102345.41
2022-12-31T23:48:19.242Z,102346.31
2022-12-31T23:50:52.944Z,102339.38
2022-12-31T23:53:22.883Z,102340.25
2022-12-31T23:55:51.082Z,102333.34
2022-12-31T23:58:18.680Z,102337.72
